createdAt,value
2022-08-10T00:01:44.164Z,2.33
2022-08-10T00:04:11.247Z,2.70
2022-08-10T00:09:15.130Z,2.10
2022-08-10T00:11:41.935Z,2.38
2022-08-10T00:14:08.709Z,2.08
2022-08-10T00:16:35.525Z,1.90
2022-08-10T00:19:02.311Z,1.88
2022-08-10T00:21:29.135Z,1.98
2022-08-10T00:23:55.888Z,2.08
2022-08-10T00:28:49.840Z,2.40
2022-08-10T00:31:16.684Z,1.70
2022-08-10T00:33:43.533Z,1.70
2022-08-10T00:36:10.467Z,1.80
2022-08-10T00:41:04.798Z,1.95
2022-08-10T00:43:31.650Z,1.67
2022-08-10T00:46:00.281Z,1.58
2022-08-10T00:48:31.212Z,1.65
2022-08-10T00:50:59.111Z,1.65
2022-08-10T00:53:27.476Z,1.45
2022-08-10T00:58:41.864Z,1.70
2022-08-10T01:02:07.493Z,1.60
2022-08-10T01:04:54.541Z,1.80
2022-08-10T01:06:53.969Z,1.60
2022-08-10T01:12:40.810Z,1.50
2022-08-10T01:15:11.097Z,1.30
2022-08-10T01:17:49.813Z,1.30
2022-08-10T01:20:38.419Z,1.40
2022-08-10T01:23:11.216Z,1.30
2022-08-10T01:31:51.475Z,1.20
2022-08-10T01:34:22.784Z,1.17
2022-08-10T01:37:02.142Z,1.17
2022-08-10T01:39:33.205Z,1.30
2022-08-10T01:42:01.922Z,1.25
2022-08-10T01:44:41.324Z,1.30
2022-08-10T01:50:19.554Z,1.05
2022-08-10T01:52:48.851Z,1.20
2022-08-10T01:55:15.710Z,1.20
2022-08-10T01:57:43.285Z,1.13
2022-08-10T02:00:10.948Z,1.00
2022-08-10T02:02:38.413Z,1.17
2022-08-10T02:05:06.840Z,1.40
2022-08-10T02:07:37.889Z,1.13
2022-08-10T02:10:09.930Z,1.08
2022-08-10T02:12:37.341Z,1.33
2022-08-10T02:15:15.957Z,1.10
2022-08-10T02:17:59.562Z,1.10
2022-08-10T02:20:42.861Z,0.88
2022-08-10T02:23:15.939Z,0.93
2022-08-10T02:25:43.975Z,1.00
2022-08-10T02:28:27.098Z,1.23
2022-08-10T02:31:21.187Z,1.00
2022-08-10T02:33:57.504Z,0.90
2022-08-10T02:36:27.457Z,0.90
2022-08-10T02:45:00.792Z,1.08
2022-08-10T02:45:23.045Z,0.85
2022-08-10T02:47:26.819Z,0.98
2022-08-10T02:50:04.174Z,0.95
2022-08-10T02:52:40.810Z,0.80
2022-08-10T02:55:32.824Z,1.00
2022-08-10T02:58:17.103Z,1.00
2022-08-10T03:00:48.937Z,1.10
2022-08-10T03:03:25.583Z,1.00
2022-08-10T03:06:00.013Z,0.98
2022-08-10T03:08:32.384Z,1.00
2022-08-10T03:11:02.189Z,1.20
2022-08-10T03:13:31.119Z,0.90
2022-08-10T03:15:59.840Z,1.10
2022-08-10T03:18:26.702Z,0.88
2022-08-10T03:20:53.733Z,0.77
2022-08-10T03:23:24.035Z,1.00
2022-08-10T03:25:54.079Z,0.90
2022-08-10T03:28:32.664Z,0.75
2022-08-10T03:31:00.592Z,0.90
2022-08-10T03:33:30.020Z,0.70
2022-08-10T03:38:46.138Z,1.05
2022-08-10T03:43:45.305Z,0.82
2022-08-10T03:46:13.497Z,0.93
2022-08-10T03:48:49.442Z,0.95
2022-08-10T03:51:20.375Z,0.80
2022-08-10T03:54:04.941Z,0.90
2022-08-10T03:56:36.195Z,1.00
2022-08-10T03:59:03.654Z,0.80
2022-08-10T04:02:43.146Z,0.80
2022-08-10T04:04:23.582Z,1.00
2022-08-10T04:06:54.388Z,0.77
2022-08-10T04:09:23.516Z,0.75
2022-08-10T04:11:50.352Z,0.90
2022-08-10T04:14:38.150Z,0.70
2022-08-10T04:17:04.086Z,0.82
2022-08-10T04:19:37.079Z,0.90
2022-08-10T04:22:16.931Z,1.00
2022-08-10T04:24:46.349Z,0.75
2022-08-10T04:29:40.058Z,0.75
2022-08-10T04:32:08.209Z,0.98
2022-08-10T04:34:35.943Z,0.90
2022-08-10T04:37:08.884Z,1.00
2022-08-10T04:39:36.232Z,0.88
2022-08-10T04:42:03.727Z,0.90
2022-08-10T04:44:31.024Z,0.90
2022-08-10T04:46:59.389Z,1.00
2022-08-10T04:49:56.091Z,0.80
2022-08-10T04:52:14.479Z,1.00
2022-08-10T04:54:41.752Z,0.70
2022-08-10T04:57:09.279Z,1.00
2022-08-10T04:59:36.261Z,0.90
2022-08-10T05:02:28.293Z,0.70
2022-08-10T05:04:49.974Z,0.80
2022-08-10T05:07:18.098Z,0.80
2022-08-10T05:10:03.210Z,0.97
2022-08-10T05:12:38.275Z,0.90
2022-08-10T05:15:07.285Z,0.70
2022-08-10T05:17:35.748Z,1.00
2022-08-10T05:20:06.906Z,1.13
2022-08-10T05:22:44.910Z,1.00
2022-08-10T05:27:47.217Z,0.70
2022-08-10T05:30:17.772Z,0.93
2022-08-10T05:32:55.366Z,0.70
2022-08-10T05:35:25.283Z,0.80
2022-08-10T05:38:09.660Z,0.88
2022-08-10T05:40:46.932Z,1.10
2022-08-10T05:43:18.845Z,1.10
2022-08-10T05:46:17.287Z,0.73
2022-08-10T05:48:57.253Z,1.85
2022-08-10T05:51:22.251Z,3.20
2022-08-10T05:54:01.940Z,2.88
2022-08-10T05:56:55.937Z,2.20
2022-08-10T06:00:29.334Z,1.75
2022-08-10T06:02:36.397Z,1.83
2022-08-10T06:05:16.212Z,3.58
2022-08-10T06:07:48.703Z,3.83
2022-08-10T06:10:28.592Z,3.10
2022-08-10T06:13:30.193Z,2.90
2022-08-10T06:16:04.861Z,2.58
2022-08-10T06:18:31.969Z,2.90
2022-08-10T06:21:00.717Z,2.40
2022-08-10T06:23:29.689Z,3.55
2022-08-10T06:26:10.808Z,3.30
2022-08-10T06:29:03.127Z,3.20
2022-08-10T06:34:14.965Z,2.65
2022-08-10T06:36:44.933Z,2.63
2022-08-10T06:39:32.363Z,2.40
2022-08-10T06:42:18.295Z,2.20
2022-08-10T06:45:09.252Z,2.13
2022-08-10T06:47:45.433Z,2.13
2022-08-10T06:50:55.931Z,2.30
2022-08-10T06:53:52.809Z,2.30
2022-08-10T06:56:18.469Z,2.53
2022-08-10T06:58:55.056Z,2.63
2022-08-10T07:01:25.548Z,2.53
2022-08-10T07:04:16.040Z,2.58
2022-08-10T07:06:46.547Z,2.25
2022-08-10T07:09:15.698Z,3.13
2022-08-10T07:11:45.059Z,2.67
2022-08-10T07:14:15.569Z,2.67
2022-08-10T07:16:45.952Z,2.70
2022-08-10T07:19:13.242Z,2.67
2022-08-10T07:21:41.512Z,2.33
2022-08-10T07:24:14.160Z,2.40
2022-08-10T07:26:46.085Z,2.13
2022-08-10T07:29:52.746Z,2.33
2022-08-10T07:32:03.348Z,2.22
2022-08-10T07:34:31.801Z,3.42
2022-08-10T07:37:06.609Z,3.45
2022-08-10T07:40:03.754Z,3.33
2022-08-10T07:42:28.303Z,2.58
2022-08-10T07:44:58.158Z,2.75
2022-08-10T07:47:53.460Z,2.85
2022-08-10T07:50:23.262Z,2.38
2022-08-10T07:52:55.648Z,2.50
2022-08-10T07:56:07.788Z,2.90
2022-08-10T07:58:10.706Z,2.22
2022-08-10T08:00:37.965Z,1.73
2022-08-10T08:05:58.540Z,2.20
2022-08-10T08:08:22.674Z,2.08
2022-08-10T08:10:49.938Z,2.17
2022-08-10T08:13:17.561Z,2.10
2022-08-10T08:16:20.669Z,1.88
2022-08-10T08:18:32.339Z,2.30
2022-08-10T08:21:04.045Z,1.80
2022-08-10T08:24:07.659Z,2.22
2022-08-10T08:26:39.222Z,2.17
2022-08-10T08:29:06.091Z,2.45
2022-08-10T08:31:33.274Z,2.50
2022-08-10T08:34:00.601Z,2.35
2022-08-10T08:36:27.958Z,2.20
2022-08-10T08:38:55.555Z,2.42
2022-08-10T08:42:10.081Z,2.10
2022-08-10T08:45:08.256Z,2.00
2022-08-10T08:52:09.199Z,2.15
2022-08-10T08:54:35.007Z,2.20
2022-08-10T08:57:49.095Z,2.05
2022-08-10T09:00:18.866Z,2.08
2022-08-10T09:02:55.089Z,1.95
2022-08-10T09:05:59.231Z,2.55
2022-08-10T09:12:11.309Z,2.42
2022-08-10T09:14:44.889Z,2.22
2022-08-10T09:20:08.057Z,1.98
2022-08-10T09:22:50.531Z,2.40
2022-08-10T09:25:25.363Z,2.40
2022-08-10T09:28:08.456Z,2.13
2022-08-10T09:37:15.149Z,2.90
2022-08-10T09:40:12.315Z,2.97
2022-08-10T09:43:25.933Z,2.47
2022-08-10T09:49:11.861Z,2.58
2022-08-10T09:58:03.875Z,2.90
2022-08-10T10:00:36.662Z,2.10
2022-08-10T10:03:25.960Z,2.55
2022-08-10T10:08:43.076Z,2.35
2022-08-10T10:11:21.211Z,2.08
2022-08-10T10:20:09.650Z,2.30
2022-08-10T10:32:36.841Z,2.08
2022-08-10T10:35:27.262Z,2.58
2022-08-10T10:38:01.085Z,1.98
2022-08-10T10:43:38.267Z,2.10
2022-08-10T10:46:28.381Z,2.15
2022-08-10T10:49:10.553Z,2.22
2022-08-10T10:52:09.160Z,2.28
2022-08-10T10:57:59.160Z,2.67
2022-08-10T11:02:49.372Z,2.20
2022-08-10T11:08:08.085Z,2.00
2022-08-10T11:10:49.491Z,2.08
2022-08-10T11:16:30.107Z,2.00
2022-08-10T11:21:50.617Z,2.17
2022-08-10T11:24:47.943Z,2.47
2022-08-10T11:29:59.677Z,2.58
2022-08-10T11:32:30.617Z,2.45
2022-08-10T11:35:11.688Z,2.90
2022-08-10T11:47:53.117Z,2.60
2022-08-10T11:50:29.266Z,2.40
2022-08-10T11:53:35.207Z,2.63
2022-08-10T11:56:10.993Z,2.80
2022-08-10T11:59:00.441Z,2.60
2022-08-10T12:01:30.704Z,2.20
2022-08-10T12:04:00.139Z,2.78
2022-08-10T12:10:09.980Z,2.25
2022-08-10T12:14:35.069Z,2.60
2022-08-10T12:17:20.394Z,4.20
2022-08-10T12:20:18.026Z,4.55
2022-08-10T12:26:14.102Z,3.33
2022-08-10T12:29:06.068Z,2.90
2022-08-10T12:31:41.164Z,2.80
2022-08-10T12:46:45.593Z,1.95
2022-08-10T12:49:19.388Z,2.38
2022-08-10T12:51:50.676Z,2.65
2022-08-10T12:54:32.076Z,1.95
2022-08-10T12:57:21.920Z,2.13
2022-08-10T12:59:52.658Z,2.28
2022-08-10T13:02:28.200Z,2.50
2022-08-10T13:04:58.074Z,2.30
2022-08-10T13:08:24.934Z,2.20
2022-08-10T13:10:20.420Z,2.22
2022-08-10T13:15:44.546Z,2.25
2022-08-10T13:18:19.047Z,1.70
2022-08-10T13:20:54.034Z,2.03
2022-08-10T13:23:27.024Z,2.35
2022-08-10T13:25:55.790Z,1.90
2022-08-10T13:34:40.412Z,1.80
2022-08-10T13:36:42.090Z,1.85
2022-08-10T13:39:09.777Z,2.15
2022-08-10T13:49:24.532Z,2.00
2022-08-10T13:51:54.517Z,2.00
2022-08-10T13:54:39.382Z,2.00
2022-08-10T13:57:06.844Z,2.03
2022-08-10T14:00:35.063Z,2.13
2022-08-10T14:02:29.020Z,2.17
2022-08-10T14:12:38.008Z,1.88
2022-08-10T14:15:08.040Z,1.90
2022-08-10T14:22:42.194Z,1.70
2022-08-10T14:28:02.040Z,1.40
2022-08-10T14:40:57.579Z,2.17
2022-08-10T14:43:28.900Z,1.73
2022-08-10T14:46:07.178Z,1.73
2022-08-10T14:48:45.655Z,1.90
2022-08-10T14:51:16.112Z,1.60
2022-08-10T14:53:43.833Z,1.80
2022-08-10T15:04:29.410Z,1.73
2022-08-10T15:07:02.528Z,1.60
2022-08-10T15:12:36.074Z,1.75
2022-08-10T15:15:05.585Z,1.70
2022-08-10T15:17:35.797Z,1.90
2022-08-10T15:22:50.462Z,1.65
2022-08-10T15:25:24.751Z,1.70
2022-08-10T15:28:05.504Z,1.90
2022-08-10T15:30:39.521Z,1.70
2022-08-10T15:34:02.206Z,1.70
2022-08-10T15:36:36.804Z,1.65
2022-08-10T15:42:05.290Z,2.10
2022-08-10T15:44:43.691Z,1.85
2022-08-10T15:50:23.878Z,2.45
2022-08-10T15:58:18.773Z,2.97
2022-08-10T16:01:00.754Z,3.25
2022-08-10T16:10:23.541Z,3.60
2022-08-10T16:15:07.902Z,3.70
2022-08-10T16:20:27.141Z,4.05
2022-08-10T16:23:05.686Z,4.25
2022-08-10T16:25:51.301Z,4.43
2022-08-10T16:28:23.851Z,3.90
2022-08-10T16:33:53.468Z,3.80
2022-08-10T16:36:19.291Z,4.15
2022-08-10T16:38:48.751Z,4.47
2022-08-10T16:42:00.663Z,3.92
2022-08-10T16:51:30.839Z,4.07
2022-08-10T16:59:20.751Z,3.58
2022-08-10T17:01:53.962Z,3.85
2022-08-10T17:04:22.912Z,4.20
2022-08-10T17:06:56.725Z,4.30
2022-08-10T17:12:05.431Z,3.47
2022-08-10T17:14:32.407Z,3.33
2022-08-10T17:17:20.160Z,3.47
2022-08-10T17:19:47.980Z,3.58
2022-08-10T17:24:57.854Z,3.38
2022-08-10T17:28:03.775Z,3.00
2022-08-10T17:30:33.726Z,3.25
2022-08-10T17:38:21.302Z,2.80
2022-08-10T17:41:12.307Z,3.42
2022-08-10T17:43:58.632Z,3.15
2022-08-10T17:46:38.554Z,2.80
2022-08-10T17:49:11.170Z,3.53
2022-08-10T17:51:40.629Z,3.38
2022-08-10T17:54:09.985Z,3.05
2022-08-10T17:59:17.316Z,3.35
2022-08-10T18:04:26.832Z,2.90
2022-08-10T18:12:17.911Z,2.90
2022-08-10T18:20:08.273Z,3.10
2022-08-10T18:22:42.145Z,2.78
2022-08-10T18:25:12.804Z,3.00
2022-08-10T18:28:01.238Z,2.95
2022-08-10T18:30:29.194Z,3.00
2022-08-10T18:32:59.616Z,2.83
2022-08-10T18:35:34.420Z,2.97
2022-08-10T18:38:02.406Z,2.95
2022-08-10T18:45:57.378Z,3.45
2022-08-10T18:48:32.582Z,2.67
2022-08-10T18:53:36.240Z,2.90
2022-08-10T19:47:45.637Z,2.60
2022-08-10T20:21:48.263Z,2.35
2022-08-10T20:32:50.980Z,2.40
2022-08-10T20:35:31.288Z,2.30
2022-08-10T20:41:15.756Z,2.20
2022-08-10T20:43:47.873Z,2.22
2022-08-10T20:46:35.812Z,2.30
2022-08-10T20:52:00.365Z,2.40
2022-08-10T20:54:33.651Z,2.15
2022-08-10T21:00:23.578Z,2.50
2022-08-10T21:14:50.266Z,4.35
2022-08-10T21:21:00.248Z,3.92
2022-08-10T21:26:10.261Z,3.00
2022-08-10T21:37:13.332Z,2.80
2022-08-10T21:47:02.774Z,3.53
2022-08-10T21:49:57.427Z,2.40
2022-08-10T21:53:00.882Z,2.50
2022-08-10T22:05:04.021Z,1.85
2022-08-10T22:10:41.343Z,2.00
2022-08-10T22:22:29.193Z,1.70
2022-08-10T22:28:24.315Z,5.85
2022-08-10T22:31:31.810Z,4.90
2022-08-10T22:44:36.097Z,2.20
2022-08-10T22:47:22.345Z,2.20
2022-08-10T22:49:52.940Z,2.17
2022-08-10T22:55:23.671Z,1.90
2022-08-10T23:00:37.289Z,2.97
2022-08-10T23:03:13.014Z,4.68
2022-08-10T23:05:54.360Z,5.50
2022-08-10T23:08:31.014Z,4.38
2022-08-10T23:11:04.028Z,4.00
2022-08-10T23:13:40.737Z,3.78
2022-08-10T23:16:35.821Z,2.92
2022-08-10T23:30:16.908Z,3.30
2022-08-10T23:36:30.313Z,3.05
2022-08-10T23:38:09.798Z,3.15
2022-08-10T23:43:05.344Z,3.10
2022-08-10T23:45:53.137Z,2.92
2022-08-10T23:48:24.430Z,2.70
2022-08-10T23:50:59.333Z,2.78
2022-08-10T23:56:17.412Z,2.70
2022-08-10T23:58:49.449Z,2.72
